Time;durP1;ratioP1;P1;durP2;ratioP2;P2;SDS_P1;SDS_P2;PMS_P1;PMS_P2;Temp;Humidity;BMP_temperature;BMP_pressure;BME280_temperature;BME280_humidity;BME280_pressure;Samples;Min_cycle;Max_cycle;Signal;HPM_P1;HPM_P2
2021/08/23 00:02:25;;;;;;;7.57;4.72;;;;;;;15.82;85.09;100345.13;5050792;28;20080;-61
2021/08/23 00:04:51;;;;;;;7.00;4.30;;;;;;;15.74;85.53;100342.47;5050130;28;20073;-64
2021/08/23 00:07:18;;;;;;;6.60;4.22;;;;;;;15.71;85.42;100340.09;5050486;28;20072;-63
2021/08/23 00:09:47;;;;;;;9.90;4.40;;;;;;;15.46;86.59;100337.44;5047836;28;20052;-63
2021/08/23 00:12:14;;;;;;;8.10;4.00;;;;;;;15.61;86.35;100339.47;5049624;28;20623;-64
2021/08/23 00:14:40;;;;;;;7.03;3.90;;;;;;;15.71;85.84;100332.00;5050846;28;20053;-62
2021/08/23 00:17:06;;;;;;;8.40;4.20;;;;;;;15.71;87.08;100340.94;5049845;28;20049;-63
2021/08/23 00:19:33;;;;;;;8.57;4.47;;;;;;;15.51;88.51;100334.25;5093435;22;20092;-61
2021/08/23 00:22:07;;;;;;;6.70;4.40;;;;;;;15.40;89.39;100327.34;5050277;28;20053;-62
2021/08/23 00:24:33;;;;;;;8.13;4.57;;;;;;;15.17;89.87;100329.94;5051707;28;20055;-63
2021/08/23 00:27:01;;;;;;;6.07;4.28;;;;;;;15.08;90.74;100330.09;5049859;28;20467;-63
2021/08/23 00:29:27;;;;;;;10.30;5.00;;;;;;;15.14;90.98;100329.41;5048851;28;20037;-61
2021/08/23 00:31:54;;;;;;;7.97;5.00;;;;;;;15.07;91.69;100321.16;5049645;28;20111;-60
2021/08/23 00:34:21;;;;;;;8.68;4.70;;;;;;;15.11;91.02;100325.19;5049807;28;20118;-62
2021/08/23 00:36:47;;;;;;;5.65;4.40;;;;;;;15.14;90.20;100321.28;5047014;28;20102;-62
2021/08/23 00:39:14;;;;;;;7.68;5.03;;;;;;;15.15;90.22;100318.44;5048217;28;20049;-59
2021/08/23 00:41:42;;;;;;;8.90;4.97;;;;;;;15.13;90.27;100317.75;5047755;28;20146;-61
2021/08/23 00:44:10;;;;;;;7.13;4.82;;;;;;;15.14;90.44;100321.28;5050034;28;20068;-60
2021/08/23 00:46:36;;;;;;;8.10;5.40;;;;;;;15.05;90.95;100322.34;5047487;28;20102;-61
2021/08/23 00:49:04;;;;;;;12.23;4.95;;;;;;;15.04;90.21;100320.66;5048013;28;20473;-60
2021/08/23 00:51:30;;;;;;;9.05;5.00;;;;;;;15.13;90.22;100322.31;5050201;28;20045;-60
2021/08/23 00:53:57;;;;;;;7.32;4.57;;;;;;;15.00;90.62;100320.13;5046585;28;21837;-62
2021/08/23 00:56:23;;;;;;;8.13;4.95;;;;;;;15.15;90.07;100322.97;5049784;28;20104;-62
2021/08/23 00:58:50;;;;;;;7.35;4.93;;;;;;;15.16;89.75;100325.53;5048938;28;20130;-61
2021/08/23 01:01:23;;;;;;;8.40;5.07;;;;;;;15.15;89.82;100322.97;5046668;28;20045;-64
2021/08/23 01:03:54;;;;;;;6.63;5.20;;;;;;;15.14;89.64;100329.41;5048575;28;20040;-63
2021/08/23 01:06:21;;;;;;;8.80;5.50;;;;;;;15.07;90.65;100325.72;5049360;28;20049;-64
2021/08/23 01:08:50;;;;;;;11.40;5.22;;;;;;;15.00;90.73;100328.25;5049116;28;20057;-59
2021/08/23 01:11:20;;;;;;;8.40;5.22;;;;;;;15.05;90.82;100327.75;5051135;28;20052;-61
2021/08/23 01:13:49;;;;;;;6.82;4.70;;;;;;;14.94;91.43;100333.50;5053120;28;20052;-61
2021/08/23 01:16:18;;;;;;;8.82;5.18;;;;;;;14.91;90.91;100330.09;5053708;28;20102;-63
2021/08/23 01:18:45;;;;;;;9.43;5.00;;;;;;;15.00;90.55;100322.00;5053372;28;20530;-62
2021/08/23 01:21:18;;;;;;;9.30;5.68;;;;;;;15.08;90.67;100327.41;5053664;28;20098;-61
2021/08/23 01:23:47;;;;;;;9.15;6.00;;;;;;;15.11;90.65;100325.19;5052284;28;20482;-61
2021/08/23 01:26:16;;;;;;;9.65;5.43;;;;;;;15.15;90.33;100323.84;5053351;28;20080;-63
2021/08/23 01:28:51;;;;;;;9.32;5.63;;;;;;;15.12;90.78;100326.88;5052751;28;20141;-61
2021/08/23 01:31:30;;;;;;;8.90;5.53;;;;;;;15.01;91.32;100327.22;5052897;28;20490;-62
2021/08/23 01:33:59;;;;;;;9.43;5.28;;;;;;;14.94;91.93;100328.09;5053809;28;20048;-62
2021/08/23 01:36:25;;;;;;;10.27;5.60;;;;;;;14.98;92.02;100324.88;5051514;28;20048;-62
2021/08/23 01:38:52;;;;;;;11.32;5.90;;;;;;;15.12;90.83;100331.44;5053813;28;20118;-61
2021/08/23 01:41:18;;;;;;;9.20;5.88;;;;;;;15.10;91.39;100328.91;5053283;28;20510;-61
2021/08/23 01:43:44;;;;;;;10.57;6.20;;;;;;;15.19;90.81;100330.59;5052497;28;20085;-62
2021/08/23 01:46:11;;;;;;;8.90;5.50;;;;;;;15.06;91.68;100327.56;5053599;28;20446;-61
2021/08/23 01:48:37;;;;;;;9.75;5.93;;;;;;;15.21;91.03;100330.41;5053003;28;20084;-63
2021/08/23 01:51:05;;;;;;;13.38;6.18;;;;;;;15.16;91.64;100328.25;5051835;28;20469;-63
2021/08/23 01:53:31;;;;;;;10.38;6.63;;;;;;;15.16;91.49;100328.25;5052434;28;20083;-63
2021/08/23 01:55:58;;;;;;;9.77;6.25;;;;;;;15.00;92.53;100324.69;5051595;28;20049;-62
2021/08/23 01:58:24;;;;;;;10.35;6.60;;;;;;;14.99;93.39;100331.13;5051839;28;20162;-63
2021/08/23 02:00:50;;;;;;;11.07;6.72;;;;;;;15.11;92.80;100332.47;5052709;28;20076;-62
2021/08/23 02:03:16;;;;;;;9.68;6.50;;;;;;;15.23;92.10;100332.94;5044973;28;20073;-63
2021/08/23 02:05:43;;;;;;;12.65;6.82;;;;;;;15.26;91.98;100325.31;5052481;28;20103;-64
2021/08/23 02:08:11;;;;;;;9.70;7.70;;;;;;;15.24;93.10;100329.22;5052473;28;20044;-61
2021/08/23 02:10:37;;;;;;;9.98;7.03;;;;;;;15.28;92.10;100328.72;5050424;28;20525;-63
2021/08/23 02:13:04;;;;;;;14.15;7.70;;;;;;;15.18;93.12;100330.78;5052100;28;20037;-63
2021/08/23 02:15:31;;;;;;;15.00;6.93;;;;;;;15.17;93.61;100326.38;5052868;28;20053;-63
2021/08/23 02:17:57;;;;;;;9.82;6.80;;;;;;;15.23;93.10;100325.69;5052356;28;20045;-61
2021/08/23 02:20:24;;;;;;;8.63;6.65;;;;;;;15.07;94.13;100325.72;5051976;28;20067;-62
2021/08/23 02:22:50;;;;;;;10.90;7.40;;;;;;;15.23;93.78;100322.97;5050321;28;20518;-62
2021/08/23 02:25:21;;;;;;;11.63;8.07;;;;;;;15.10;94.33;100328.06;5051160;28;20126;-62
2021/08/23 02:27:48;;;;;;;10.02;7.32;;;;;;;15.05;94.43;100325.91;5052638;28;20388;-63
2021/08/23 02:30:14;;;;;;;11.15;7.80;;;;;;;15.17;94.67;100337.19;5050174;28;20077;-64
2021/08/23 02:32:41;;;;;;;10.57;8.15;;;;;;;15.26;94.43;100328.03;5050328;28;20099;-62
2021/08/23 02:35:08;;;;;;;12.48;9.50;;;;;;;15.29;94.07;100333.13;5052282;28;20054;-64
2021/08/23 02:37:34;;;;;;;12.50;8.93;;;;;;;15.11;94.65;100330.59;5051323;28;20498;-62
2021/08/23 02:40:01;;;;;;;10.00;7.80;;;;;;;15.10;94.99;100330.78;5050601;28;20094;-62
2021/08/23 02:42:29;;;;;;;12.63;9.23;;;;;;;15.34;94.44;100330.72;5049762;28;20075;-62
2021/08/23 02:44:55;;;;;;;17.35;11.48;;;;;;;15.18;94.87;100328.06;5044337;28;20072;-63
2021/08/23 02:47:21;;;;;;;15.60;10.13;;;;;;;15.28;95.45;100330.59;5052125;28;20053;-61
2021/08/23 02:49:48;;;;;;;22.83;11.18;;;;;;;15.28;95.21;100333.28;5051940;28;20455;-61
2021/08/23 02:52:14;;;;;;;14.73;11.10;;;;;;;15.27;95.36;100339.69;5050342;28;20211;-63
2021/08/23 02:54:40;;;;;;;16.48;12.23;;;;;;;15.25;95.67;100342.56;5050827;28;20499;-61
2021/08/23 02:57:07;;;;;;;16.38;11.30;;;;;;;15.43;95.40;100340.50;5051211;28;20057;-63
2021/08/23 02:59:35;;;;;;;16.73;12.57;;;;;;;15.26;95.62;100338.84;5051150;28;20067;-61
2021/08/23 03:02:01;;;;;;;20.17;14.05;;;;;;;15.23;95.94;100339.19;5049067;28;20564;-63
2021/08/23 03:04:28;;;;;;;19.17;13.38;;;;;;;15.16;96.57;100341.75;5050802;28;20495;-63
2021/08/23 03:06:54;;;;;;;24.27;14.13;;;;;;;15.29;96.30;100337.69;5051217;28;20076;-63
2021/08/23 03:09:20;;;;;;;23.30;13.80;;;;;;;15.24;96.52;100349.00;5051072;28;20460;-61
2021/08/23 03:11:47;;;;;;;22.83;14.10;;;;;;;15.41;96.32;100347.97;5049382;28;20049;-61
2021/08/23 03:14:13;;;;;;;21.83;14.25;;;;;;;15.40;96.47;100348.97;5051510;28;20122;-61
2021/08/23 03:16:40;;;;;;;20.33;14.15;;;;;;;15.31;96.43;100347.31;5051992;28;20075;-62
2021/08/23 03:19:07;;;;;;;27.15;16.33;;;;;;;15.26;97.04;100351.53;5050901;28;20678;-60
2021/08/23 03:21:33;;;;;;;22.38;14.48;;;;;;;15.28;96.99;100353.06;5048516;28;20593;-62
2021/08/23 03:23:59;;;;;;;22.80;14.23;;;;;;;15.46;96.79;100353.69;5049486;28;20116;-61
2021/08/23 03:26:26;;;;;;;24.08;15.70;;;;;;;15.25;97.02;100345.28;5051061;28;20048;-63
2021/08/23 03:28:52;;;;;;;18.90;12.65;;;;;;;15.19;97.23;100345.97;5051489;28;20084;-63
2021/08/23 03:31:19;;;;;;;21.17;14.20;;;;;;;15.20;97.64;100350.34;5050597;28;20483;-63
2021/08/23 03:33:46;;;;;;;20.65;12.25;;;;;;;15.26;97.45;100348.81;5050563;28;20142;-63
2021/08/23 03:36:12;;;;;;;19.25;12.07;;;;;;;15.17;97.25;100350.72;5050437;28;20507;-62
2021/08/23 03:38:40;;;;;;;16.85;10.90;;;;;;;15.12;97.18;100347.66;5050078;28;20119;-65
2021/08/23 03:41:07;;;;;;;13.52;8.10;;;;;;;15.26;96.72;100341.53;5050863;28;20052;-62
2021/08/23 03:43:33;;;;;;;11.82;8.25;;;;;;;15.32;96.42;100348.16;5050891;28;20080;-64
2021/08/23 03:45:59;;;;;;;11.57;7.75;;;;;;;15.20;96.65;100344.94;5050651;28;20683;-63
2021/08/23 03:48:26;;;;;;;10.45;6.90;;;;;;;15.36;95.60;100346.78;5049502;28;20053;-63
2021/08/23 03:50:53;;;;;;;9.88;7.03;;;;;;;15.23;95.83;100355.41;5049803;28;20099;-63
2021/08/23 03:53:20;;;;;;;10.95;7.70;;;;;;;15.09;96.28;100348.00;5049507;28;20562;-65
2021/08/23 03:55:46;;;;;;;11.52;8.20;;;;;;;15.00;96.77;100349.03;5050255;28;20099;-62
2021/08/23 03:58:12;;;;;;;12.48;8.73;;;;;;;14.96;96.97;100350.38;5050146;28;20044;-61
2021/08/23 04:00:39;;;;;;;10.73;8.07;;;;;;;15.21;96.30;100355.59;5050890;28;20041;-61
2021/08/23 04:03:05;;;;;;;13.68;9.38;;;;;;;15.01;96.46;100356.97;5049290;28;20422;-61
2021/08/23 04:05:32;;;;;;;17.20;10.13;;;;;;;15.03;96.71;100360.34;5048517;28;20733;-62
2021/08/23 04:07:59;;;;;;;17.73;11.07;;;;;;;14.93;97.12;100367.78;5051260;28;20053;-62
2021/08/23 04:10:26;;;;;;;17.17;11.13;;;;;;;14.90;97.07;100357.31;5049179;28;20134;-61
2021/08/23 04:12:52;;;;;;;17.25;10.30;;;;;;;14.85;97.13;100357.81;5044020;28;20095;-63
2021/08/23 04:15:18;;;;;;;17.38;10.32;;;;;;;14.75;97.55;100365.25;5049731;28;20052;-63
2021/08/23 04:17:45;;;;;;;13.40;8.13;;;;;;;15.00;96.43;100366.09;5049531;28;20053;-61
2021/08/23 04:20:13;;;;;;;9.48;7.82;;;;;;;14.86;96.91;100373.00;5049688;28;20560;-64
2021/08/23 04:22:39;;;;;;;8.48;6.03;;;;;;;15.04;96.74;100366.63;5049693;28;20049;-61
2021/08/23 04:25:08;;;;;;;7.13;5.05;;;;;;;14.95;96.51;100368.47;5050045;28;20498;-63
2021/08/23 04:27:34;;;;;;;7.85;4.45;;;;;;;14.96;96.74;100372.00;5050362;28;20044;-63
2021/08/23 04:30:01;;;;;;;8.65;5.75;;;;;;;14.87;96.76;100377.41;5050801;28;20065;-63
2021/08/23 04:32:27;;;;;;;8.05;6.25;;;;;;;14.74;97.47;100384.31;5046860;28;20080;-63
2021/08/23 04:34:53;;;;;;;9.68;6.25;;;;;;;14.77;96.97;100381.28;5044883;28;20094;-60
2021/08/23 04:37:20;;;;;;;6.78;5.25;;;;;;;14.91;96.20;100384.16;5049769;28;20081;-62
2021/08/23 04:39:47;;;;;;;8.55;6.20;;;;;;;14.74;96.96;100381.63;5049525;28;20487;-62
2021/08/23 04:42:14;;;;;;;10.68;6.78;;;;;;;14.78;96.57;100389.22;5047862;28;20491;-62
2021/08/23 04:44:43;;;;;;;7.75;6.38;;;;;;;14.86;96.58;100386.53;5047825;28;20045;-62
2021/08/23 04:47:10;;;;;;;9.90;6.88;;;;;;;14.72;97.09;100389.91;5053329;28;20048;-63
2021/08/23 04:49:36;;;;;;;13.00;6.90;;;;;;;14.74;96.74;100389.72;5053817;28;20045;-64
2021/08/23 04:52:03;;;;;;;10.13;7.38;;;;;;;14.58;97.78;100393.25;5051564;28;20114;-61
2021/08/23 04:54:29;;;;;;;10.68;7.47;;;;;;;14.69;97.75;100398.34;5046561;28;20049;-63
2021/08/23 04:56:55;;;;;;;10.95;7.35;;;;;;;14.61;97.61;100399.16;5050118;28;20102;-58
2021/08/23 04:59:23;;;;;;;10.85;8.15;;;;;;;14.52;98.14;100400.16;5052257;28;20053;-55
2021/08/23 05:01:49;;;;;;;10.02;6.93;;;;;;;14.54;98.14;100403.53;5053810;28;20106;-57
2021/08/23 05:04:16;;;;;;;10.93;7.95;;;;;;;14.52;98.04;100410.13;5053665;28;20506;-62
2021/08/23 05:06:42;;;;;;;10.00;7.80;;;;;;;14.56;98.11;100414.16;5052611;28;20045;-61
2021/08/23 05:09:08;;;;;;;8.95;7.43;;;;;;;14.62;97.35;100410.81;5053935;28;20114;-62
2021/08/23 05:11:36;;;;;;;9.48;7.47;;;;;;;14.56;97.74;100412.34;5052424;28;20049;-59
2021/08/23 05:14:02;;;;;;;9.30;7.68;;;;;;;14.56;97.57;100419.56;5053358;28;20049;-61
2021/08/23 05:16:30;;;;;;;9.25;6.95;;;;;;;14.56;97.43;100412.34;5053060;28;20057;-57
2021/08/23 05:18:57;;;;;;;9.80;7.05;;;;;;;14.58;97.27;100414.88;5047030;28;20044;-55
2021/08/23 05:21:23;;;;;;;9.20;6.53;;;;;;;14.55;97.17;100415.19;5054037;28;20041;-64
2021/08/23 05:23:49;;;;;;;8.07;5.82;;;;;;;14.75;96.77;100423.84;5052328;28;20049;-56
2021/08/23 05:26:16;;;;;;;10.85;6.50;;;;;;;14.53;97.25;100419.91;5052421;28;20458;-55
2021/08/23 05:28:42;;;;;;;13.15;8.88;;;;;;;14.49;97.17;100423.97;5052268;28;20453;-56
2021/08/23 05:31:08;;;;;;;12.63;9.05;;;;;;;14.46;97.01;100421.59;5053580;28;20521;-53
2021/08/23 05:33:36;;;;;;;11.02;8.98;;;;;;;14.46;96.85;100422.44;5053000;28;20052;-54
2021/08/23 05:36:02;;;;;;;13.13;10.48;;;;;;;14.41;97.08;100422.03;5047453;28;20070;-55
2021/08/23 05:38:30;;;;;;;13.30;9.45;;;;;;;14.46;96.81;100427.00;5052992;28;20118;-57
2021/08/23 05:40:56;;;;;;;11.88;9.50;;;;;;;14.50;96.77;100425.66;5053272;28;20041;-59
2021/08/23 05:43:22;;;;;;;11.90;9.05;;;;;;;14.56;96.00;100422.28;5051315;28;20661;-61
2021/08/23 05:45:49;;;;;;;12.73;10.23;;;;;;;14.54;95.97;100424.28;5053675;28;20098;-59
2021/08/23 05:48:16;;;;;;;16.00;10.27;;;;;;;14.52;95.94;100429.03;5052668;28;20514;-63
2021/08/23 05:50:44;;;;;;;19.23;11.05;;;;;;;14.36;96.31;100420.84;5052213;28;20045;-60
2021/08/23 05:53:10;;;;;;;17.38;12.25;;;;;;;14.23;97.18;100432.97;5050864;28;20495;-59
2021/08/23 05:55:36;;;;;;;15.65;11.13;;;;;;;14.39;96.65;100448.38;5050066;28;20063;-61
2021/08/23 05:58:03;;;;;;;17.90;11.90;;;;;;;14.15;97.62;100441.03;5052911;28;20445;-60
2021/08/23 06:00:29;;;;;;;14.18;10.27;;;;;;;14.34;97.11;100446.16;5051689;28;20462;-60
2021/08/23 06:02:56;;;;;;;13.40;10.02;;;;;;;14.52;97.38;100445.22;5046554;28;20489;-58
2021/08/23 06:05:23;;;;;;;12.82;8.60;;;;;;;14.26;96.62;100447.97;5040252;28;20076;-53
2021/08/23 06:07:50;;;;;;;9.85;7.40;;;;;;;14.21;97.12;100453.03;5051935;28;20045;-55
2021/08/23 06:10:17;;;;;;;8.93;6.35;;;;;;;14.15;96.76;100457.22;5052533;28;20044;-55
2021/08/23 06:12:43;;;;;;;8.73;5.78;;;;;;;14.17;97.27;100457.91;5050058;28;20044;-54
2021/08/23 06:15:10;;;;;;;5.55;4.50;;;;;;;14.01;97.34;100449.72;5052182;28;20159;-56
2021/08/23 06:17:36;;;;;;;6.72;4.53;;;;;;;14.15;97.74;100467.16;5052229;28;20080;-56
2021/08/23 06:20:03;;;;;;;5.78;3.95;;;;;;;14.28;97.13;100465.69;5051917;28;20045;-60
2021/08/23 06:22:30;;;;;;;5.45;4.10;;;;;;;14.13;96.88;100464.63;5052010;28;20103;-58
2021/08/23 06:24:58;;;;;;;8.13;5.63;;;;;;;14.20;96.78;100467.50;5050765;28;20044;-60
2021/08/23 06:27:25;;;;;;;6.97;5.82;;;;;;;14.01;96.73;100472.16;5052175;28;20491;-60
2021/08/23 06:29:51;;;;;;;10.32;6.90;;;;;;;13.97;97.41;100468.09;5043376;28;20045;-59
2021/08/23 06:32:18;;;;;;;12.00;7.20;;;;;;;14.11;96.48;100472.06;5044542;28;20098;-58
2021/08/23 06:34:44;;;;;;;11.35;7.55;;;;;;;13.89;96.36;100473.44;5051165;28;20107;-55
2021/08/23 06:37:10;;;;;;;9.70;7.63;;;;;;;13.94;96.58;100483.75;5051755;28;20106;-56
2021/08/23 06:39:37;;;;;;;10.00;6.72;;;;;;;14.00;96.31;100477.72;5052619;28;20392;-55
2021/08/23 06:42:05;;;;;;;8.25;6.43;;;;;;;13.78;96.84;100486.34;5050441;28;20045;-61
2021/08/23 06:44:31;;;;;;;10.32;6.57;;;;;;;13.95;96.32;100498.94;5043578;28;20094;-56
2021/08/23 06:46:57;;;;;;;9.77;7.28;;;;;;;13.84;95.97;100499.19;5045088;28;20069;-56
2021/08/23 06:49:24;;;;;;;11.43;7.57;;;;;;;13.74;96.50;100497.47;5044515;28;20053;-55
2021/08/23 06:51:50;;;;;;;12.98;7.57;;;;;;;13.74;95.93;100502.88;5041851;28;20142;-59
2021/08/23 06:54:16;;;;;;;11.57;7.13;;;;;;;13.73;95.52;100505.69;5047517;28;20045;-58
2021/08/23 06:56:43;;;;;;;12.27;7.25;;;;;;;13.65;95.93;100509.22;5048833;28;20048;-55
2021/08/23 06:59:11;;;;;;;9.50;7.18;;;;;;;13.69;95.84;100510.56;5045693;28;20049;-56
2021/08/23 07:01:37;;;;;;;14.13;7.22;;;;;;;13.69;95.90;100509.72;5050456;28;20063;-60
2021/08/23 07:04:04;;;;;;;9.43;6.45;;;;;;;13.72;95.51;100518.34;5049905;28;20049;-56
2021/08/23 07:06:31;;;;;;;10.43;7.05;;;;;;;13.70;95.44;100511.41;5044557;28;20065;-57
2021/08/23 07:08:57;;;;;;;15.10;7.93;;;;;;;13.58;96.22;100520.75;5042369;28;20049;-56
2021/08/23 07:11:24;;;;;;;13.55;8.05;;;;;;;13.46;96.87;100521.00;5050689;28;20052;-53
2021/08/23 07:13:50;;;;;;;9.15;6.75;;;;;;;13.53;96.22;100521.25;5044623;28;20060;-61
2021/08/23 07:16:18;;;;;;;10.60;6.53;;;;;;;13.54;95.86;100524.78;5050384;28;20094;-62
2021/08/23 07:18:44;;;;;;;11.60;6.97;;;;;;;13.53;96.44;100532.03;5049779;28;20049;-60
2021/08/23 07:21:10;;;;;;;11.10;6.25;;;;;;;13.71;95.27;100524.75;5050557;28;20063;-59
2021/08/23 07:23:36;;;;;;;8.23;4.95;;;;;;;13.83;94.73;100536.13;5049061;28;20121;-60
2021/08/23 07:26:03;;;;;;;12.18;6.55;;;;;;;13.68;95.78;100540.41;5048945;28;20146;-62
2021/08/23 07:28:29;;;;;;;8.20;5.88;;;;;;;13.63;95.84;100538.19;5049915;28;20519;-60
2021/08/23 07:30:56;;;;;;;11.98;7.00;;;;;;;13.49;96.65;100546.81;5048657;28;20471;-61
2021/08/23 07:33:23;;;;;;;10.27;7.03;;;;;;;13.50;97.10;100542.25;5052328;28;20049;-63
2021/08/23 07:35:50;;;;;;;11.25;6.22;;;;;;;13.58;96.89;100553.97;5048130;28;20064;-63
2021/08/23 07:38:16;;;;;;;15.55;6.78;;;;;;;13.66;96.67;100548.66;5050094;28;20045;-59
2021/08/23 07:40:42;;;;;;;12.32;6.55;;;;;;;13.82;95.80;100552.47;5049780;28;20040;-61
2021/08/23 07:43:09;;;;;;;11.55;6.75;;;;;;;13.82;95.76;100555.16;5049612;28;20080;-60
2021/08/23 07:45:35;;;;;;;12.93;6.40;;;;;;;13.78;95.57;100559.19;5050437;28;20126;-60
2021/08/23 07:48:02;;;;;;;9.23;6.32;;;;;;;13.69;95.98;100556.44;5050694;28;20045;-60
2021/08/23 07:50:30;;;;;;;11.35;6.75;;;;;;;13.83;94.87;100562.25;5048349;28;20049;-59
2021/08/23 07:52:57;;;;;;;7.05;5.00;;;;;;;14.00;93.79;100561.38;5050522;28;20041;-61
2021/08/23 07:55:23;;;;;;;14.60;5.78;;;;;;;13.78;95.26;100570.00;5050274;28;20056;-58
2021/08/23 07:57:50;;;;;;;9.60;6.07;;;;;;;13.72;95.87;100566.91;5042372;28;20461;-62
2021/08/23 08:00:19;;;;;;;7.38;4.82;;;;;;;13.85;94.13;100573.72;5050838;28;20068;-61
2021/08/23 08:02:46;;;;;;;9.10;5.03;;;;;;;13.83;94.85;100576.59;5047770;28;20049;-59
2021/08/23 08:05:13;;;;;;;9.38;5.88;;;;;;;13.81;94.74;100584.00;5048667;28;20111;-59
2021/08/23 08:07:41;;;;;;;10.07;5.18;;;;;;;13.85;94.69;100571.03;5049197;28;20053;-61
2021/08/23 08:10:09;;;;;;;9.77;5.55;;;;;;;13.86;94.54;100583.56;5050031;28;20102;-60
2021/08/23 08:12:35;;;;;;;13.85;5.13;;;;;;;13.84;94.66;100586.38;5049132;28;20446;-61
2021/08/23 08:15:02;;;;;;;11.75;5.70;;;;;;;13.58;95.54;100597.13;5050205;28;20045;-59
2021/08/23 08:17:28;;;;;;;10.80;5.68;;;;;;;13.77;95.35;100596.13;5043276;28;20048;-63
2021/08/23 08:19:55;;;;;;;9.60;6.10;;;;;;;13.79;95.02;100599.50;5048989;28;20053;-60
2021/08/23 08:22:21;;;;;;;10.75;5.88;;;;;;;13.93;94.35;100600.78;5047595;28;20099;-61
2021/08/23 08:24:49;;;;;;;8.32;5.43;;;;;;;14.19;92.90;100598.09;5046636;28;20552;-61
2021/08/23 08:27:16;;;;;;;8.70;5.25;;;;;;;14.31;93.14;100599.53;5042486;28;20541;-59
2021/08/23 08:29:42;;;;;;;7.68;4.95;;;;;;;14.76;90.27;100603.84;5049773;28;20475;-61
2021/08/23 08:32:09;;;;;;;9.20;4.72;;;;;;;14.68;89.89;100610.06;5048981;28;20037;-61
2021/08/23 08:34:36;;;;;;;7.00;4.28;;;;;;;15.08;88.62;100608.53;5049824;28;20080;-55
2021/08/23 08:37:02;;;;;;;10.30;5.55;;;;;;;14.65;90.91;100614.94;5050207;28;20408;-55
2021/08/23 08:39:29;;;;;;;9.05;5.13;;;;;;;14.45;92.23;100614.34;5049477;28;20119;-57
2021/08/23 08:41:57;;;;;;;6.75;5.07;;;;;;;14.63;90.26;100618.66;5048027;28;20916;-54
2021/08/23 08:44:24;;;;;;;7.18;4.68;;;;;;;14.89;89.14;100623.16;5048518;28;20110;-58
2021/08/23 08:46:51;;;;;;;9.93;5.07;;;;;;;14.58;91.37;100630.94;5048527;28;20087;-56
2021/08/23 08:49:19;;;;;;;9.63;5.40;;;;;;;14.79;91.18;100630.53;5048705;28;20130;-57
2021/08/23 08:51:46;;;;;;;7.68;5.40;;;;;;;14.63;91.32;100628.59;5049685;28;20103;-57
2021/08/23 08:54:12;;;;;;;9.40;4.80;;;;;;;14.74;89.56;100632.88;5049147;28;20053;-57
2021/08/23 08:56:39;;;;;;;9.35;4.63;;;;;;;14.85;89.61;100644.25;5049376;28;20079;-56
2021/08/23 08:59:06;;;;;;;6.78;4.70;;;;;;;14.76;90.11;100642.50;5048996;28;20138;-61
2021/08/23 09:01:33;;;;;;;7.63;5.35;;;;;;;14.51;90.92;100649.63;5049634;28;20110;-60
2021/08/23 09:04:04;;;;;;;11.07;4.63;;;;;;;14.67;90.40;100654.28;5049193;28;20098;-56
2021/08/23 09:06:38;;;;;;;8.40;4.55;;;;;;;14.73;90.96;100650.09;5048620;28;20071;-58
2021/08/23 09:09:10;;;;;;;6.45;4.10;;;;;;;15.13;88.61;100654.81;5041751;28;20049;-58
2021/08/23 09:11:36;;;;;;;8.00;4.25;;;;;;;14.92;88.85;100660.69;5042121;28;20049;-62
2021/08/23 09:14:06;;;;;;;9.80;4.63;;;;;;;14.61;91.16;100663.03;5048422;28;20163;-60
2021/08/23 09:16:36;;;;;;;7.55;4.22;;;;;;;14.79;90.11;100671.06;5049630;28;20044;-62
2021/08/23 09:19:02;;;;;;;12.38;4.03;;;;;;;15.15;87.92;100666.31;5048431;28;20048;-62
2021/08/23 09:21:31;;;;;;;5.68;3.80;;;;;;;15.17;87.91;100673.28;5049785;28;20297;-58
2021/08/23 09:23:58;;;;;;;7.60;4.13;;;;;;;15.15;85.85;100680.72;5049074;28;20471;-61
2021/08/23 09:26:31;;;;;;;8.50;3.90;;;;;;;14.80;86.95;100676.31;5049063;28;20095;-56
2021/08/23 09:28:59;;;;;;;6.68;3.70;;;;;;;14.91;86.94;100688.69;5048960;28;20573;-56
2021/08/23 09:31:26;;;;;;;6.88;4.45;;;;;;;14.40;89.21;100686.84;5049933;28;20549;-58
2021/08/23 09:33:58;;;;;;;5.20;3.47;;;;;;;14.22;90.15;100695.81;5050475;28;20552;-55
2021/08/23 09:36:27;;;;;;;9.45;4.22;;;;;;;13.97;91.85;100691.19;5049020;28;20132;-55
2021/08/23 09:38:58;;;;;;;11.57;3.90;;;;;;;14.18;91.96;100694.44;5043041;28;20142;-54
2021/08/23 09:41:25;;;;;;;6.78;3.88;;;;;;;14.13;90.30;100691.34;5049954;28;20468;-57
2021/08/23 09:43:59;;;;;;;7.20;4.38;;;;;;;14.14;89.22;100703.84;5052312;28;20122;-56
2021/08/23 09:46:25;;;;;;;5.72;3.00;;;;;;;14.33;87.29;100687.47;5052314;28;20045;-55
2021/08/23 09:48:54;;;;;;;5.65;2.88;;;;;;;14.85;84.54;100698.28;5045896;28;20080;-54
2021/08/23 09:51:28;;;;;;;6.32;3.08;;;;;;;15.09;83.05;100688.59;5052635;28;20053;-55
2021/08/23 09:54:07;;;;;;;6.43;3.30;;;;;;;15.07;83.33;100702.28;5051432;28;20499;-56
2021/08/23 09:56:36;;;;;;;7.97;2.55;;;;;;;15.17;82.99;100692.19;5052525;28;20138;-59
2021/08/23 09:59:03;;;;;;;6.50;2.80;;;;;;;15.02;82.97;100692.97;5051583;28;20041;-58
2021/08/23 10:01:32;;;;;;;4.47;2.33;;;;;;;15.12;81.84;100689.13;5044514;28;20535;-59
2021/08/23 10:04:03;;;;;;;3.75;2.88;;;;;;;14.99;82.63;100696.84;5051422;28;20549;-55
2021/08/23 10:06:31;;;;;;;4.82;3.10;;;;;;;15.10;83.27;100696.56;5049318;28;20049;-53
2021/08/23 10:08:57;;;;;;;5.35;2.08;;;;;;;15.22;81.68;100699.81;5052345;28;20504;-52
2021/08/23 10:11:25;;;;;;;6.15;2.95;;;;;;;14.96;82.71;100697.16;5052045;28;20441;-54
2021/08/23 10:13:51;;;;;;;5.30;2.90;;;;;;;15.16;81.87;100700.47;5050218;28;20542;-55
2021/08/23 10:16:17;;;;;;;4.03;2.65;;;;;;;15.13;83.00;100707.03;5041709;28;20065;-55
2021/08/23 10:18:44;;;;;;;6.72;2.70;;;;;;;15.19;83.01;100713.66;5048793;28;20049;-54
2021/08/23 10:21:12;;;;;;;3.50;2.22;;;;;;;15.46;82.12;100705.31;5049568;28;20278;-54
2021/08/23 10:23:39;;;;;;;4.70;2.78;;;;;;;15.45;81.27;100716.28;5052007;28;20313;-54
2021/08/23 10:26:05;;;;;;;4.78;2.47;;;;;;;15.70;80.29;100707.25;5052266;28;20103;-56
2021/08/23 10:28:36;;;;;;;4.90;2.70;;;;;;;15.73;80.38;100701.50;5048511;28;20110;-53
2021/08/23 10:31:07;;;;;;;6.70;2.63;;;;;;;15.80;80.36;100709.81;5050861;28;20037;-53
2021/08/23 10:33:36;;;;;;;3.70;2.53;;;;;;;15.75;81.36;100709.47;5051296;28;20045;-60
2021/08/23 10:36:05;;;;;;;4.35;2.58;;;;;;;15.97;80.42;100700.69;5050920;28;20048;-56
2021/08/23 10:38:32;;;;;;;5.25;3.30;;;;;;;15.82;80.94;100715.91;5051920;28;20075;-57
2021/08/23 10:41:07;;;;;;;7.47;2.20;;;;;;;15.89;81.09;100711.53;5049942;28;20052;-62
2021/08/23 10:43:44;;;;;;;5.93;2.45;;;;;;;16.17;79.85;100722.03;5047402;28;20049;-61
2021/08/23 10:46:23;;;;;;;5.65;2.53;;;;;;;16.26;79.94;100718.31;5048518;28;20118;-60
2021/08/23 10:48:50;;;;;;;4.97;2.85;;;;;;;16.23;79.30;100719.50;5051491;28;20073;-62
2021/08/23 10:51:28;;;;;;;5.75;2.65;;;;;;;16.20;80.43;100719.81;5044076;28;20411;-62
2021/08/23 10:53:56;;;;;;;4.82;2.65;;;;;;;16.41;80.11;100719.31;5050324;28;20045;-62
2021/08/23 10:56:24;;;;;;;4.43;2.60;;;;;;;16.64;78.50;100728.44;5050692;28;20553;-61
2021/08/23 10:58:51;;;;;;;6.47;2.67;;;;;;;16.71;78.67;100733.22;5044169;28;20060;-64
2021/08/23 11:01:20;;;;;;;4.28;3.00;;;;;;;16.71;78.03;100727.81;5048406;28;20442;-64
2021/08/23 11:03:47;;;;;;;7.85;2.28;;;;;;;16.86;77.45;100736.91;5042485;28;20491;-61
2021/08/23 11:06:14;;;;;;;5.22;2.17;;;;;;;17.15;76.34;100729.00;5052293;28;20049;-62
2021/08/23 11:08:42;;;;;;;3.67;2.40;;;;;;;16.85;78.04;100737.94;5051582;28;20103;-63
2021/08/23 11:11:14;;;;;;;5.65;2.50;;;;;;;16.69;79.69;100736.06;5047285;28;20045;-61
2021/08/23 11:13:42;;;;;;;5.63;2.70;;;;;;;16.65;79.28;100729.28;5049618;28;20071;-61
2021/08/23 11:16:09;;;;;;;3.25;2.22;;;;;;;16.57;79.58;100738.25;5050921;28;20057;-64
2021/08/23 11:18:41;;;;;;;6.82;3.08;;;;;;;16.83;79.07;100737.25;5051673;28;20044;-63
2021/08/23 11:21:08;;;;;;;4.22;2.65;;;;;;;16.76;78.73;100739.81;5050518;28;20041;-62
2021/08/23 11:23:34;;;;;;;4.28;2.20;;;;;;;16.81;77.99;100733.84;5050818;28;20037;-63